Contoocook River @ Riverhill, Nh

Contoocook River at River Hill
 Total Drainage Area: 760 sq. miles 
 Drainage Area Controlled by Corps Dams: 555 sq. miles (73%) 
 Warning Flow/Stage: 5,640 cfs / 14.7 feet 
 Flood Flow/Stage: 12,000 cfs / 18.0 feet 
Date Time
(Eastern)
Stage
(ft)
Flow
(cfs)
CSM
(cfs / sq. mi.)
Feb-26 02:00 am 10.48 240 .3
Feb-26 01:00 am 10.48 240 .3
Feb-26 12:00 am 10.48 240 .3
Feb-25 11:00 pm 10.47 235 .3
Feb-25 10:00 pm 10.47 235 .3
Feb-25 09:00 pm 10.46 230 .3
Feb-25 08:00 pm 10.46 230 .3
Feb-25 07:00 pm 10.46 230 .3
Feb-25 06:00 pm 10.46 230 .3
Feb-25 05:00 pm 10.45 226 .3
Feb-25 04:00 pm 10.45 226 .3
Feb-25 03:00 pm 10.45 226 .3
Feb-25 02:00 pm 10.44 221 .3
Feb-25 01:00 pm 10.44 221 .3
Feb-25 12:00 pm 10.42 211 .3
Feb-25 11:00 am 10.41 206 .3
Feb-25 10:00 am 10.42 211 .3
Feb-25 09:00 am 10.43 216 .3
Feb-25 08:00 am 10.43 216 .3
Feb-25 07:00 am 10.45 226 .3
Feb-25 06:00 am 10.46 230 .3
Feb-25 05:00 am 10.46 230 .3
Feb-25 04:00 am 10.47 235 .3
Feb-25 03:00 am 10.47 235 .3
Feb-25 02:00 am 10.48 240 .3
Report Generated February 26, 2024 02:23 am